sensor_id;sensor_type;location;lat;lon;timestamp;P1;durP1;ratioP1;P2;durP2;ratioP2
54929;SDS011;40833;53.238;6.576;2023-07-20T00:00:52;1.07;;;1.00;;
54929;SDS011;40833;53.238;6.576;2023-07-20T00:03:18;2.80;;;1.20;;
54929;SDS011;40833;53.238;6.576;2023-07-20T00:05:48;2.93;;;0.83;;
54929;SDS011;40833;53.238;6.576;2023-07-20T00:08:14;3.97;;;1.50;;
54929;SDS011;40833;53.238;6.576;2023-07-20T00:10:41;1.40;;;1.20;;
54929;SDS011;40833;53.238;6.576;2023-07-20T00:13:07;2.60;;;1.30;;
54929;SDS011;40833;53.238;6.576;2023-07-20T00:15:33;1.40;;;1.00;;
54929;SDS011;40833;53.238;6.576;2023-07-20T00:17:58;5.30;;;1.37;;
54929;SDS011;40833;53.238;6.576;2023-07-20T00:20:24;2.17;;;1.30;;
54929;SDS011;40833;53.238;6.576;2023-07-20T00:22:50;1.70;;;1.30;;
54929;SDS011;40833;53.238;6.576;2023-07-20T00:25:17;3.07;;;1.17;;
54929;SDS011;40833;53.238;6.576;2023-07-20T00:27:43;2.80;;;1.53;;
54929;SDS011;40833;53.238;6.576;2023-07-20T00:30:09;1.50;;;1.30;;
54929;SDS011;40833;53.238;6.576;2023-07-20T00:32:35;2.40;;;1.23;;
54929;SDS011;40833;53.238;6.576;2023-07-20T00:35:00;1.97;;;1.50;;
54929;SDS011;40833;53.238;6.576;2023-07-20T00:37:26;2.33;;;1.27;;
54929;SDS011;40833;53.238;6.576;2023-07-20T00:39:54;1.30;;;1.20;;
54929;SDS011;40833;53.238;6.576;2023-07-20T00:42:19;1.70;;;1.60;;
54929;SDS011;40833;53.238;6.576;2023-07-20T00:44:45;5.23;;;1.47;;
54929;SDS011;40833;53.238;6.576;2023-07-20T00:47:11;3.20;;;1.50;;
54929;SDS011;40833;53.238;6.576;2023-07-20T00:49:37;1.77;;;0.93;;
54929;SDS011;40833;53.238;6.576;2023-07-20T00:52:03;1.47;;;1.37;;
54929;SDS011;40833;53.238;6.576;2023-07-20T00:54:32;1.87;;;1.00;;
54929;SDS011;40833;53.238;6.576;2023-07-20T00:56:59;4.50;;;1.60;;
54929;SDS011;40833;53.238;6.576;2023-07-20T00:59:26;2.93;;;1.60;;
54929;SDS011;40833;53.238;6.576;2023-07-20T01:01:52;3.50;;;1.37;;
54929;SDS011;40833;53.238;6.576;2023-07-20T01:04:18;1.83;;;1.73;;
54929;SDS011;40833;53.238;6.576;2023-07-20T01:07:05;1.67;;;1.40;;
54929;SDS011;40833;53.238;6.576;2023-07-20T01:12:48;1.63;;;1.20;;
54929;SDS011;40833;53.238;6.576;2023-07-20T01:15:17;1.83;;;1.67;;
54929;SDS011;40833;53.238;6.576;2023-07-20T01:17:43;4.00;;;1.20;;
54929;SDS011;40833;53.238;6.576;2023-07-20T01:20:10;1.90;;;1.70;;
54929;SDS011;40833;53.238;6.576;2023-07-20T01:31:12;2.60;;;1.67;;
54929;SDS011;40833;53.238;6.576;2023-07-20T01:33:56;1.10;;;1.10;;
54929;SDS011;40833;53.238;6.576;2023-07-20T01:36:24;4.27;;;1.60;;
54929;SDS011;40833;53.238;6.576;2023-07-20T01:38:52;2.13;;;1.57;;
54929;SDS011;40833;53.238;6.576;2023-07-20T01:41:18;1.60;;;1.50;;
54929;SDS011;40833;53.238;6.576;2023-07-20T01:43:44;1.60;;;1.50;;
54929;SDS011;40833;53.238;6.576;2023-07-20T01:46:10;2.40;;;1.83;;
54929;SDS011;40833;53.238;6.576;2023-07-20T01:48:36;3.33;;;1.90;;
54929;SDS011;40833;53.238;6.576;2023-07-20T01:51:02;1.40;;;1.30;;
54929;SDS011;40833;53.238;6.576;2023-07-20T01:53:27;1.33;;;1.20;;
54929;SDS011;40833;53.238;6.576;2023-07-20T01:55:53;1.50;;;1.40;;
54929;SDS011;40833;53.238;6.576;2023-07-20T01:58:22;1.40;;;1.30;;
54929;SDS011;40833;53.238;6.576;2023-07-20T02:00:47;2.93;;;1.30;;
54929;SDS011;40833;53.238;6.576;2023-07-20T02:03:13;1.37;;;1.00;;
54929;SDS011;40833;53.238;6.576;2023-07-20T02:05:39;3.13;;;1.13;;
54929;SDS011;40833;53.238;6.576;2023-07-20T02:08:07;2.70;;;1.10;;
54929;SDS011;40833;53.238;6.576;2023-07-20T02:10:32;1.33;;;1.03;;
54929;SDS011;40833;53.238;6.576;2023-07-20T02:12:58;3.53;;;1.10;;
54929;SDS011;40833;53.238;6.576;2023-07-20T02:15:24;2.73;;;1.03;;
54929;SDS011;40833;53.238;6.576;2023-07-20T02:17:49;2.00;;;1.00;;
54929;SDS011;40833;53.238;6.576;2023-07-20T02:20:15;3.60;;;1.00;;
54929;SDS011;40833;53.238;6.576;2023-07-20T02:22:41;3.17;;;1.00;;
54929;SDS011;40833;53.238;6.576;2023-07-20T02:25:07;2.93;;;1.30;;
54929;SDS011;40833;53.238;6.576;2023-07-20T02:27:33;6.20;;;0.90;;
54929;SDS011;40833;53.238;6.576;2023-07-20T02:29:59;2.70;;;0.90;;
54929;SDS011;40833;53.238;6.576;2023-07-20T02:32:25;1.33;;;1.10;;
54929;SDS011;40833;53.238;6.576;2023-07-20T02:34:51;1.80;;;1.07;;
54929;SDS011;40833;53.238;6.576;2023-07-20T02:37:17;3.30;;;1.07;;
54929;SDS011;40833;53.238;6.576;2023-07-20T02:39:42;1.37;;;0.60;;
54929;SDS011;40833;53.238;6.576;2023-07-20T02:42:08;2.10;;;0.80;;
54929;SDS011;40833;53.238;6.576;2023-07-20T02:44:34;2.40;;;0.77;;
54929;SDS011;40833;53.238;6.576;2023-07-20T02:47:00;4.80;;;0.70;;
54929;SDS011;40833;53.238;6.576;2023-07-20T02:49:26;1.93;;;0.60;;
54929;SDS011;40833;53.238;6.576;2023-07-20T02:51:52;1.60;;;1.00;;
54929;SDS011;40833;53.238;6.576;2023-07-20T02:54:17;1.63;;;0.67;;
54929;SDS011;40833;53.238;6.576;2023-07-20T02:56:43;4.13;;;0.60;;
54929;SDS011;40833;53.238;6.576;2023-07-20T02:59:09;2.30;;;1.00;;
54929;SDS011;40833;53.238;6.576;2023-07-20T03:01:35;0.93;;;0.70;;
54929;SDS011;40833;53.238;6.576;2023-07-20T03:04:00;1.83;;;0.60;;
54929;SDS011;40833;53.238;6.576;2023-07-20T03:06:27;2.20;;;1.10;;
54929;SDS011;40833;53.238;6.576;2023-07-20T03:08:52;2.53;;;0.80;;
54929;SDS011;40833;53.238;6.576;2023-07-20T03:11:19;5.10;;;0.97;;
54929;SDS011;40833;53.238;6.576;2023-07-20T03:13:45;1.57;;;0.80;;
54929;SDS011;40833;53.238;6.576;2023-07-20T03:16:12;3.40;;;1.90;;
54929;SDS011;40833;53.238;6.576;2023-07-20T03:18:40;5.20;;;1.10;;
54929;SDS011;40833;53.238;6.576;2023-07-20T03:21:07;3.37;;;1.30;;
54929;SDS011;40833;53.238;6.576;2023-07-20T03:23:36;3.93;;;1.37;;
54929;SDS011;40833;53.238;6.576;2023-07-20T03:26:02;1.60;;;1.50;;
54929;SDS011;40833;53.238;6.576;2023-07-20T03:28:28;2.10;;;1.27;;
54929;SDS011;40833;53.238;6.576;2023-07-20T03:30:54;1.97;;;1.10;;
54929;SDS011;40833;53.238;6.576;2023-07-20T03:33:26;3.30;;;1.80;;
54929;SDS011;40833;53.238;6.576;2023-07-20T03:35:54;2.80;;;1.60;;
54929;SDS011;40833;53.238;6.576;2023-07-20T03:38:23;1.67;;;1.57;;
54929;SDS011;40833;53.238;6.576;2023-07-20T03:40:50;4.00;;;1.70;;
54929;SDS011;40833;53.238;6.576;2023-07-20T03:43:24;3.20;;;2.37;;
54929;SDS011;40833;53.238;6.576;2023-07-20T03:45:50;2.13;;;1.57;;
54929;SDS011;40833;53.238;6.576;2023-07-20T03:48:17;2.23;;;2.00;;
54929;SDS011;40833;53.238;6.576;2023-07-20T03:50:46;2.93;;;2.30;;
54929;SDS011;40833;53.238;6.576;2023-07-20T03:53:13;2.57;;;1.63;;
54929;SDS011;40833;53.238;6.576;2023-07-20T03:55:45;3.73;;;1.63;;
54929;SDS011;40833;53.238;6.576;2023-07-20T03:58:15;3.17;;;2.00;;
54929;SDS011;40833;53.238;6.576;2023-07-20T04:00:45;2.90;;;2.00;;
54929;SDS011;40833;53.238;6.576;2023-07-20T04:03:11;2.90;;;1.77;;
54929;SDS011;40833;53.238;6.576;2023-07-20T04:05:37;3.60;;;1.97;;
54929;SDS011;40833;53.238;6.576;2023-07-20T04:08:03;2.13;;;1.77;;
54929;SDS011;40833;53.238;6.576;2023-07-20T04:10:29;2.90;;;2.07;;
54929;SDS011;40833;53.238;6.576;2023-07-20T04:12:55;3.23;;;2.10;;
54929;SDS011;40833;53.238;6.576;2023-07-20T04:15:20;1.80;;;1.70;;
54929;SDS011;40833;53.238;6.576;2023-07-20T04:17:46;2.13;;;1.40;;
54929;SDS011;40833;53.238;6.576;2023-07-20T04:20:12;3.37;;;1.63;;
54929;SDS011;40833;53.238;6.576;2023-07-20T04:22:38;4.67;;;1.40;;
54929;SDS011;40833;53.238;6.576;2023-07-20T04:25:04;4.20;;;1.13;;
54929;SDS011;40833;53.238;6.576;2023-07-20T04:27:29;4.87;;;1.13;;
54929;SDS011;40833;53.238;6.576;2023-07-20T04:29:55;1.23;;;1.03;;
54929;SDS011;40833;53.238;6.576;2023-07-20T04:32:23;2.80;;;1.23;;
54929;SDS011;40833;53.238;6.576;2023-07-20T04:34:50;2.90;;;1.13;;
54929;SDS011;40833;53.238;6.576;2023-07-20T04:37:15;2.53;;;1.07;;
54929;SDS011;40833;53.238;6.576;2023-07-20T04:39:41;7.30;;;1.20;;
54929;SDS011;40833;53.238;6.576;2023-07-20T04:42:07;2.03;;;1.27;;
54929;SDS011;40833;53.238;6.576;2023-07-20T04:44:32;3.63;;;1.00;;
54929;SDS011;40833;53.238;6.576;2023-07-20T04:46:58;1.53;;;1.43;;
54929;SDS011;40833;53.238;6.576;2023-07-20T04:49:24;2.77;;;1.00;;
54929;SDS011;40833;53.238;6.576;2023-07-20T04:51:49;1.93;;;1.20;;
54929;SDS011;40833;53.238;6.576;2023-07-20T04:54:16;2.47;;;1.10;;
54929;SDS011;40833;53.238;6.576;2023-07-20T04:56:42;3.00;;;1.00;;
54929;SDS011;40833;53.238;6.576;2023-07-20T04:59:07;0.83;;;0.83;;
54929;SDS011;40833;53.238;6.576;2023-07-20T05:01:33;1.57;;;0.80;;
54929;SDS011;40833;53.238;6.576;2023-07-20T05:03:59;1.40;;;0.87;;
54929;SDS011;40833;53.238;6.576;2023-07-20T05:06:24;3.23;;;1.30;;
54929;SDS011;40833;53.238;6.576;2023-07-20T05:08:51;4.43;;;0.60;;
54929;SDS011;40833;53.238;6.576;2023-07-20T05:11:16;1.13;;;0.57;;
54929;SDS011;40833;53.238;6.576;2023-07-20T05:13:42;1.47;;;0.80;;
54929;SDS011;40833;53.238;6.576;2023-07-20T05:16:08;2.37;;;0.87;;
54929;SDS011;40833;53.238;6.576;2023-07-20T05:18:33;4.33;;;0.77;;
54929;SDS011;40833;53.238;6.576;2023-07-20T05:20:59;3.20;;;0.87;;
54929;SDS011;40833;53.238;6.576;2023-07-20T05:23:24;1.40;;;0.60;;
54929;SDS011;40833;53.238;6.576;2023-07-20T05:25:57;4.17;;;0.93;;
54929;SDS011;40833;53.238;6.576;2023-07-20T05:28:24;4.40;;;0.70;;
54929;SDS011;40833;53.238;6.576;2023-07-20T05:30:51;3.43;;;1.00;;
54929;SDS011;40833;53.238;6.576;2023-07-20T05:33:18;5.27;;;0.70;;
54929;SDS011;40833;53.238;6.576;2023-07-20T05:35:44;1.13;;;0.53;;
54929;SDS011;40833;53.238;6.576;2023-07-20T05:38:10;3.53;;;0.60;;
54929;SDS011;40833;53.238;6.576;2023-07-20T05:40:37;1.73;;;0.60;;
54929;SDS011;40833;53.238;6.576;2023-07-20T05:43:03;6.03;;;0.83;;
54929;SDS011;40833;53.238;6.576;2023-07-20T05:45:29;4.57;;;1.23;;
54929;SDS011;40833;53.238;6.576;2023-07-20T05:47:55;6.70;;;0.70;;
54929;SDS011;40833;53.238;6.576;2023-07-20T05:50:20;3.10;;;0.47;;
54929;SDS011;40833;53.238;6.576;2023-07-20T05:52:46;4.40;;;0.80;;
54929;SDS011;40833;53.238;6.576;2023-07-20T05:55:12;5.60;;;0.63;;
54929;SDS011;40833;53.238;6.576;2023-07-20T05:57:38;4.43;;;0.83;;
54929;SDS011;40833;53.238;6.576;2023-07-20T06:00:08;4.83;;;0.47;;
54929;SDS011;40833;53.238;6.576;2023-07-20T06:02:34;5.70;;;0.50;;
54929;SDS011;40833;53.238;6.576;2023-07-20T06:05:00;5.17;;;0.60;;
54929;SDS011;40833;53.238;6.576;2023-07-20T06:07:26;3.40;;;0.37;;
54929;SDS011;40833;53.238;6.576;2023-07-20T06:09:55;2.37;;;0.50;;
54929;SDS011;40833;53.238;6.576;2023-07-20T06:12:20;4.93;;;0.37;;
54929;SDS011;40833;53.238;6.576;2023-07-20T06:14:46;1.93;;;0.20;;
54929;SDS011;40833;53.238;6.576;2023-07-20T06:17:12;2.43;;;0.83;;
54929;SDS011;40833;53.238;6.576;2023-07-20T06:19:37;4.30;;;0.50;;
54929;SDS011;40833;53.238;6.576;2023-07-20T06:22:03;3.40;;;0.50;;
54929;SDS011;40833;53.238;6.576;2023-07-20T06:24:29;1.03;;;0.20;;
54929;SDS011;40833;53.238;6.576;2023-07-20T06:26:55;2.67;;;0.30;;
54929;SDS011;40833;53.238;6.576;2023-07-20T06:29:20;2.13;;;0.20;;
54929;SDS011;40833;53.238;6.576;2023-07-20T06:31:46;4.13;;;0.87;;
54929;SDS011;40833;53.238;6.576;2023-07-20T06:34:12;4.30;;;0.57;;
54929;SDS011;40833;53.238;6.576;2023-07-20T06:36:38;2.70;;;0.70;;
54929;SDS011;40833;53.238;6.576;2023-07-20T06:39:04;1.50;;;0.43;;
54929;SDS011;40833;53.238;6.576;2023-07-20T06:41:29;2.60;;;0.37;;
54929;SDS011;40833;53.238;6.576;2023-07-20T06:43:55;2.80;;;0.60;;
54929;SDS011;40833;53.238;6.576;2023-07-20T06:46:24;3.97;;;0.67;;
54929;SDS011;40833;53.238;6.576;2023-07-20T06:48:53;3.23;;;0.67;;
54929;SDS011;40833;53.238;6.576;2023-07-20T06:51:19;3.47;;;0.60;;
54929;SDS011;40833;53.238;6.576;2023-07-20T06:53:45;2.50;;;0.80;;
54929;SDS011;40833;53.238;6.576;2023-07-20T06:56:11;3.13;;;1.00;;
54929;SDS011;40833;53.238;6.576;2023-07-20T06:58:36;7.03;;;0.93;;
54929;SDS011;40833;53.238;6.576;2023-07-20T07:01:05;5.17;;;1.40;;
54929;SDS011;40833;53.238;6.576;2023-07-20T07:03:32;5.33;;;0.80;;
54929;SDS011;40833;53.238;6.576;2023-07-20T07:05:58;3.83;;;1.03;;
54929;SDS011;40833;53.238;6.576;2023-07-20T07:08:24;3.23;;;0.83;;
54929;SDS011;40833;53.238;6.576;2023-07-20T07:10:50;4.47;;;0.80;;
54929;SDS011;40833;53.238;6.576;2023-07-20T07:13:16;5.80;;;0.67;;
54929;SDS011;40833;53.238;6.576;2023-07-20T07:15:42;5.87;;;1.10;;
54929;SDS011;40833;53.238;6.576;2023-07-20T07:18:08;3.33;;;0.90;;
54929;SDS011;40833;53.238;6.576;2023-07-20T07:20:33;3.57;;;1.13;;
54929;SDS011;40833;53.238;6.576;2023-07-20T07:22:59;3.00;;;0.83;;
54929;SDS011;40833;53.238;6.576;2023-07-20T07:25:25;3.10;;;0.90;;
54929;SDS011;40833;53.238;6.576;2023-07-20T07:27:52;5.97;;;0.87;;
54929;SDS011;40833;53.238;6.576;2023-07-20T07:30:19;4.30;;;1.10;;
54929;SDS011;40833;53.238;6.576;2023-07-20T07:32:45;4.33;;;0.90;;
54929;SDS011;40833;53.238;6.576;2023-07-20T07:35:11;6.60;;;0.90;;
54929;SDS011;40833;53.238;6.576;2023-07-20T07:37:37;3.60;;;0.77;;
54929;SDS011;40833;53.238;6.576;2023-07-20T07:40:03;6.07;;;1.27;;
54929;SDS011;40833;53.238;6.576;2023-07-20T07:42:30;8.20;;;1.10;;
54929;SDS011;40833;53.238;6.576;2023-07-20T07:44:56;7.67;;;0.70;;
54929;SDS011;40833;53.238;6.576;2023-07-20T07:47:22;4.23;;;0.70;;
54929;SDS011;40833;53.238;6.576;2023-07-20T07:49:47;5.47;;;0.63;;
54929;SDS011;40833;53.238;6.576;2023-07-20T07:52:13;4.23;;;0.60;;
54929;SDS011;40833;53.238;6.576;2023-07-20T07:54:39;7.10;;;1.00;;
54929;SDS011;40833;53.238;6.576;2023-07-20T07:57:05;6.37;;;0.90;;
54929;SDS011;40833;53.238;6.576;2023-07-20T07:59:31;4.93;;;0.60;;
54929;SDS011;40833;53.238;6.576;2023-07-20T08:02:01;6.17;;;0.83;;
54929;SDS011;40833;53.238;6.576;2023-07-20T08:04:29;1.63;;;0.63;;
54929;SDS011;40833;53.238;6.576;2023-07-20T08:06:55;2.77;;;0.67;;
54929;SDS011;40833;53.238;6.576;2023-07-20T08:09:21;6.80;;;0.63;;
54929;SDS011;40833;53.238;6.576;2023-07-20T08:11:47;2.43;;;0.40;;
54929;SDS011;40833;53.238;6.576;2023-07-20T08:14:13;3.60;;;0.50;;
54929;SDS011;40833;53.238;6.576;2023-07-20T08:16:39;9.63;;;2.30;;
54929;SDS011;40833;53.238;6.576;2023-07-20T08:19:04;3.53;;;0.30;;
54929;SDS011;40833;53.238;6.576;2023-07-20T08:21:30;3.80;;;0.40;;
54929;SDS011;40833;53.238;6.576;2023-07-20T08:23:56;3.17;;;0.40;;
54929;SDS011;40833;53.238;6.576;2023-07-20T08:26:22;5.13;;;0.20;;
54929;SDS011;40833;53.238;6.576;2023-07-20T08:28:48;1.67;;;0.57;;
54929;SDS011;40833;53.238;6.576;2023-07-20T08:31:14;2.08;;;0.13;;
54929;SDS011;40833;53.238;6.576;2023-07-20T08:33:40;2.83;;;0.20;;
54929;SDS011;40833;53.238;6.576;2023-07-20T08:36:06;1.38;;;0.20;;
54929;SDS011;40833;53.238;6.576;2023-07-20T08:38:31;1.13;;;0.10;;
54929;SDS011;40833;53.238;6.576;2023-07-20T08:40:57;3.47;;;0.10;;
54929;SDS011;40833;53.238;6.576;2023-07-20T08:43:25;2.47;;;0.20;;
54929;SDS011;40833;53.238;6.576;2023-07-20T08:45:54;2.20;;;0.20;;
54929;SDS011;40833;53.238;6.576;2023-07-20T08:48:24;2.83;;;0.23;;
54929;SDS011;40833;53.238;6.576;2023-07-20T08:50:53;4.50;;;0.80;;
54929;SDS011;40833;53.238;6.576;2023-07-20T08:53:19;4.97;;;0.30;;
54929;SDS011;40833;53.238;6.576;2023-07-20T08:55:45;2.45;;;0.30;;
54929;SDS011;40833;53.238;6.576;2023-07-20T08:58:14;2.72;;;0.10;;
54929;SDS011;40833;53.238;6.576;2023-07-20T09:00:41;1.95;;;0.10;;
54929;SDS011;40833;53.238;6.576;2023-07-20T09:03:07;2.42;;;0.20;;
54929;SDS011;40833;53.238;6.576;2023-07-20T09:05:33;4.47;;;0.30;;
54929;SDS011;40833;53.238;6.576;2023-07-20T09:08:00;1.60;;;0.45;;
54929;SDS011;40833;53.238;6.576;2023-07-20T09:10:28;1.58;;;0.30;;
54929;SDS011;40833;53.238;6.576;2023-07-20T09:12:54;2.42;;;0.20;;
54929;SDS011;40833;53.238;6.576;2023-07-20T09:15:21;1.13;;;0.17;;
54929;SDS011;40833;53.238;6.576;2023-07-20T09:17:48;3.80;;;0.20;;
54929;SDS011;40833;53.238;6.576;2023-07-20T09:20:15;2.80;;;0.28;;
54929;SDS011;40833;53.238;6.576;2023-07-20T09:22:45;3.38;;;0.30;;
54929;SDS011;40833;53.238;6.576;2023-07-20T09:25:12;1.27;;;0.20;;
54929;SDS011;40833;53.238;6.576;2023-07-20T09:27:40;2.17;;;0.10;;
54929;SDS011;40833;53.238;6.576;2023-07-20T09:30:07;2.30;;;0.22;;
54929;SDS011;40833;53.238;6.576;2023-07-20T09:32:46;5.63;;;0.10;;
54929;SDS011;40833;53.238;6.576;2023-07-20T09:35:13;4.68;;;0.20;;
54929;SDS011;40833;53.238;6.576;2023-07-20T09:40:17;0.35;;;0.10;;
54929;SDS011;40833;53.238;6.576;2023-07-20T09:42:43;3.40;;;0.10;;
54929;SDS011;40833;53.238;6.576;2023-07-20T09:45:10;3.10;;;0.20;;
54929;SDS011;40833;53.238;6.576;2023-07-20T09:47:37;1.95;;;0.15;;
54929;SDS011;40833;53.238;6.576;2023-07-20T09:50:03;4.85;;;0.40;;
54929;SDS011;40833;53.238;6.576;2023-07-20T09:52:30;5.60;;;0.20;;
54929;SDS011;40833;53.238;6.576;2023-07-20T09:54:56;1.95;;;0.10;;
54929;SDS011;40833;53.238;6.576;2023-07-20T09:57:23;1.65;;;0.20;;
54929;SDS011;40833;53.238;6.576;2023-07-20T09:59:51;2.67;;;0.30;;
54929;SDS011;40833;53.238;6.576;2023-07-20T10:02:20;3.85;;;0.10;;
54929;SDS011;40833;53.238;6.576;2023-07-20T10:04:51;2.23;;;0.10;;
54929;SDS011;40833;53.238;6.576;2023-07-20T10:07:18;0.88;;;0.10;;
54929;SDS011;40833;53.238;6.576;2023-07-20T10:09:48;3.40;;;0.20;;
54929;SDS011;40833;53.238;6.576;2023-07-20T10:12:15;1.75;;;0.20;;
54929;SDS011;40833;53.238;6.576;2023-07-20T10:14:44;1.95;;;0.30;;
54929;SDS011;40833;53.238;6.576;2023-07-20T10:17:17;0.25;;;0.10;;
54929;SDS011;40833;53.238;6.576;2023-07-20T10:19:44;2.75;;;0.22;;
54929;SDS011;40833;53.238;6.576;2023-07-20T10:22:16;3.30;;;0.30;;
54929;SDS011;40833;53.238;6.576;2023-07-20T10:24:46;0.70;;;0.10;;
54929;SDS011;40833;53.238;6.576;2023-07-20T10:27:15;1.75;;;0.10;;
54929;SDS011;40833;53.238;6.576;2023-07-20T10:29:41;3.88;;;0.43;;
54929;SDS011;40833;53.238;6.576;2023-07-20T10:32:07;2.67;;;0.10;;
54929;SDS011;40833;53.238;6.576;2023-07-20T10:34:34;1.75;;;0.20;;
54929;SDS011;40833;53.238;6.576;2023-07-20T10:37:00;1.35;;;0.20;;
54929;SDS011;40833;53.238;6.576;2023-07-20T10:39:30;2.42;;;0.20;;
54929;SDS011;40833;53.238;6.576;2023-07-20T10:42:10;0.70;;;0.10;;
54929;SDS011;40833;53.238;6.576;2023-07-20T10:44:39;1.75;;;0.17;;
54929;SDS011;40833;53.238;6.576;2023-07-20T10:47:14;2.65;;;0.20;;
54929;SDS011;40833;53.238;6.576;2023-07-20T10:49:58;1.25;;;0.28;;
54929;SDS011;40833;53.238;6.576;2023-07-20T10:52:25;1.83;;;0.35;;
54929;SDS011;40833;53.238;6.576;2023-07-20T10:54:51;2.65;;;0.20;;
54929;SDS011;40833;53.238;6.576;2023-07-20T10:57:24;1.80;;;0.20;;
54929;SDS011;40833;53.238;6.576;2023-07-20T11:00:06;0.40;;;0.20;;
54929;SDS011;40833;53.238;6.576;2023-07-20T11:02:47;3.92;;;0.30;;
54929;SDS011;40833;53.238;6.576;2023-07-20T11:08:03;1.13;;;0.20;;
54929;SDS011;40833;53.238;6.576;2023-07-20T11:10:30;4.00;;;0.40;;
54929;SDS011;40833;53.238;6.576;2023-07-20T11:15:44;3.50;;;0.43;;
54929;SDS011;40833;53.238;6.576;2023-07-20T11:18:26;1.98;;;0.28;;
54929;SDS011;40833;53.238;6.576;2023-07-20T11:20:52;1.60;;;0.10;;
54929;SDS011;40833;53.238;6.576;2023-07-20T11:23:21;2.63;;;0.45;;
54929;SDS011;40833;53.238;6.576;2023-07-20T11:25:49;5.28;;;0.35;;
54929;SDS011;40833;53.238;6.576;2023-07-20T11:28:15;2.50;;;0.20;;
54929;SDS011;40833;53.238;6.576;2023-07-20T11:30:40;1.80;;;0.20;;
54929;SDS011;40833;53.238;6.576;2023-07-20T11:33:09;5.35;;;0.30;;
54929;SDS011;40833;53.238;6.576;2023-07-20T11:35:44;1.35;;;0.28;;
54929;SDS011;40833;53.238;6.576;2023-07-20T11:38:15;3.97;;;0.30;;
54929;SDS011;40833;53.238;6.576;2023-07-20T11:40:45;1.60;;;0.28;;
54929;SDS011;40833;53.238;6.576;2023-07-20T11:43:14;1.55;;;0.20;;
54929;SDS011;40833;53.238;6.576;2023-07-20T11:45:40;2.80;;;0.30;;
54929;SDS011;40833;53.238;6.576;2023-07-20T11:48:06;5.00;;;0.30;;
54929;SDS011;40833;53.238;6.576;2023-07-20T11:50:32;5.35;;;0.40;;
54929;SDS011;40833;53.238;6.576;2023-07-20T11:53:04;1.88;;;0.30;;
54929;SDS011;40833;53.238;6.576;2023-07-20T11:55:29;1.33;;;0.25;;
54929;SDS011;40833;53.238;6.576;2023-07-20T11:58:06;1.05;;;0.20;;
54929;SDS011;40833;53.238;6.576;2023-07-20T12:00:33;1.85;;;0.20;;
54929;SDS011;40833;53.238;6.576;2023-07-20T12:03:00;1.02;;;0.10;;
54929;SDS011;40833;53.238;6.576;2023-07-20T12:05:26;1.27;;;0.22;;
54929;SDS011;40833;53.238;6.576;2023-07-20T12:07:52;1.13;;;0.20;;
54929;SDS011;40833;53.238;6.576;2023-07-20T12:10:26;1.58;;;0.40;;
54929;SDS011;40833;53.238;6.576;2023-07-20T12:12:53;3.05;;;0.20;;
54929;SDS011;40833;53.238;6.576;2023-07-20T12:17:46;0.85;;;0.10;;
54929;SDS011;40833;53.238;6.576;2023-07-20T12:20:24;2.22;;;0.10;;
54929;SDS011;40833;53.238;6.576;2023-07-20T12:23:04;3.65;;;0.25;;
54929;SDS011;40833;53.238;6.576;2023-07-20T12:28:09;1.67;;;0.20;;
54929;SDS011;40833;53.238;6.576;2023-07-20T12:30:39;0.57;;;0.10;;
54929;SDS011;40833;53.238;6.576;2023-07-20T12:33:06;0.85;;;0.20;;
54929;SDS011;40833;53.238;6.576;2023-07-20T12:35:32;4.05;;;0.20;;
54929;SDS011;40833;53.238;6.576;2023-07-20T12:37:58;0.63;;;0.10;;
54929;SDS011;40833;53.238;6.576;2023-07-20T12:40:25;0.70;;;0.05;;
54929;SDS011;40833;53.238;6.576;2023-07-20T12:42:50;2.65;;;0.17;;
54929;SDS011;40833;53.238;6.576;2023-07-20T12:45:16;3.55;;;0.10;;
54929;SDS011;40833;53.238;6.576;2023-07-20T12:47:42;1.50;;;0.10;;
54929;SDS011;40833;53.238;6.576;2023-07-20T12:50:11;1.60;;;0.10;;
54929;SDS011;40833;53.238;6.576;2023-07-20T12:52:38;0.63;;;0.20;;
54929;SDS011;40833;53.238;6.576;2023-07-20T12:55:05;1.65;;;0.28;;
54929;SDS011;40833;53.238;6.576;2023-07-20T12:57:33;1.48;;;0.57;;
54929;SDS011;40833;53.238;6.576;2023-07-20T13:00:00;0.98;;;0.10;;
54929;SDS011;40833;53.238;6.576;2023-07-20T13:02:28;3.03;;;0.22;;
54929;SDS011;40833;53.238;6.576;2023-07-20T13:04:55;3.85;;;0.20;;
54929;SDS011;40833;53.238;6.576;2023-07-20T13:07:28;0.82;;;0.20;;
54929;SDS011;40833;53.238;6.576;2023-07-20T13:09:59;1.05;;;0.13;;
54929;SDS011;40833;53.238;6.576;2023-07-20T13:12:26;2.35;;;0.13;;
54929;SDS011;40833;53.238;6.576;2023-07-20T13:14:54;0.98;;;0.10;;
54929;SDS011;40833;53.238;6.576;2023-07-20T13:17:20;0.88;;;0.20;;
54929;SDS011;40833;53.238;6.576;2023-07-20T13:19:46;0.95;;;0.20;;
54929;SDS011;40833;53.238;6.576;2023-07-20T13:22:12;3.85;;;0.22;;
54929;SDS011;40833;53.238;6.576;2023-07-20T13:24:40;5.13;;;0.40;;
54929;SDS011;40833;53.238;6.576;2023-07-20T13:27:06;1.77;;;0.30;;
54929;SDS011;40833;53.238;6.576;2023-07-20T13:29:32;3.05;;;0.20;;
54929;SDS011;40833;53.238;6.576;2023-07-20T13:31:58;1.83;;;0.20;;
54929;SDS011;40833;53.238;6.576;2023-07-20T13:34:24;3.30;;;0.20;;
54929;SDS011;40833;53.238;6.576;2023-07-20T13:36:51;4.93;;;0.30;;
54929;SDS011;40833;53.238;6.576;2023-07-20T13:39:16;3.28;;;0.22;;
54929;SDS011;40833;53.238;6.576;2023-07-20T13:41:42;3.35;;;0.22;;
54929;SDS011;40833;53.238;6.576;2023-07-20T13:44:08;2.63;;;0.22;;
54929;SDS011;40833;53.238;6.576;2023-07-20T13:46:34;1.60;;;0.30;;
54929;SDS011;40833;53.238;6.576;2023-07-20T13:49:00;3.35;;;0.20;;
54929;SDS011;40833;53.238;6.576;2023-07-20T13:51:25;1.75;;;0.10;;
54929;SDS011;40833;53.238;6.576;2023-07-20T13:53:51;1.63;;;0.10;;
54929;SDS011;40833;53.238;6.576;2023-07-20T13:56:17;1.80;;;0.32;;
54929;SDS011;40833;53.238;6.576;2023-07-20T13:58:42;2.45;;;0.30;;
54929;SDS011;40833;53.238;6.576;2023-07-20T14:01:08;2.28;;;0.20;;
54929;SDS011;40833;53.238;6.576;2023-07-20T14:03:34;2.10;;;0.20;;
54929;SDS011;40833;53.238;6.576;2023-07-20T14:06:00;2.83;;;0.20;;
54929;SDS011;40833;53.238;6.576;2023-07-20T14:08:25;2.53;;;0.20;;
54929;SDS011;40833;53.238;6.576;2023-07-20T14:10:51;2.08;;;0.25;;
54929;SDS011;40833;53.238;6.576;2023-07-20T14:13:17;2.35;;;0.10;;
54929;SDS011;40833;53.238;6.576;2023-07-20T14:15:42;2.08;;;0.28;;
54929;SDS011;40833;53.238;6.576;2023-07-20T14:18:08;1.30;;;0.20;;
54929;SDS011;40833;53.238;6.576;2023-07-20T14:20:34;1.77;;;0.20;;
54929;SDS011;40833;53.238;6.576;2023-07-20T14:23:00;1.38;;;0.20;;
54929;SDS011;40833;53.238;6.576;2023-07-20T14:25:26;7.22;;;0.45;;
54929;SDS011;40833;53.238;6.576;2023-07-20T14:27:53;2.20;;;0.30;;
54929;SDS011;40833;53.238;6.576;2023-07-20T14:30:18;3.33;;;0.30;;
54929;SDS011;40833;53.238;6.576;2023-07-20T14:32:44;2.55;;;0.30;;
54929;SDS011;40833;53.238;6.576;2023-07-20T14:37:40;4.82;;;0.50;;
54929;SDS011;40833;53.238;6.576;2023-07-20T14:40:06;2.42;;;0.28;;
54929;SDS011;40833;53.238;6.576;2023-07-20T14:42:33;2.55;;;0.30;;
54929;SDS011;40833;53.238;6.576;2023-07-20T14:44:59;0.82;;;0.30;;
54929;SDS011;40833;53.238;6.576;2023-07-20T14:50:16;3.00;;;0.60;;
54929;SDS011;40833;53.238;6.576;2023-07-20T14:52:42;3.03;;;0.30;;
54929;SDS011;40833;53.238;6.576;2023-07-20T14:55:07;2.33;;;0.20;;
54929;SDS011;40833;53.238;6.576;2023-07-20T14:57:33;1.30;;;0.35;;
54929;SDS011;40833;53.238;6.576;2023-07-20T14:59:58;1.65;;;0.30;;
54929;SDS011;40833;53.238;6.576;2023-07-20T15:02:24;3.80;;;0.43;;
54929;SDS011;40833;53.238;6.576;2023-07-20T15:04:50;5.13;;;0.30;;
54929;SDS011;40833;53.238;6.576;2023-07-20T15:07:16;2.80;;;0.40;;
54929;SDS011;40833;53.238;6.576;2023-07-20T15:09:48;2.38;;;0.47;;
54929;SDS011;40833;53.238;6.576;2023-07-20T15:12:14;1.83;;;0.55;;
54929;SDS011;40833;53.238;6.576;2023-07-20T15:14:41;6.32;;;0.85;;
54929;SDS011;40833;53.238;6.576;2023-07-20T15:17:08;4.55;;;0.80;;